createdAt,value
2023-03-17T00:01:57.291Z,-1.38
2023-03-17T00:04:57.309Z,-1.36
2023-03-17T00:07:58.263Z,-1.31
2023-03-17T00:10:58.261Z,-1.47
2023-03-17T00:13:58.307Z,-1.33
2023-03-17T00:17:01.242Z,-1.38
2023-03-17T00:19:54.409Z,-1.39
2023-03-17T00:22:54.275Z,-1.39
2023-03-17T00:25:54.333Z,-1.37
2023-03-17T00:28:54.253Z,-1.47
2023-03-17T00:31:54.220Z,-1.50
2023-03-17T00:34:54.248Z,-1.53
2023-03-17T00:37:54.226Z,-1.65
2023-03-17T00:40:57.274Z,-1.64
2023-03-17T00:43:57.392Z,-1.62
2023-03-17T00:46:53.294Z,-1.56
2023-03-17T00:49:39.243Z,-1.53
2023-03-17T00:52:39.239Z,-1.58
2023-03-17T00:55:40.262Z,-1.64
2023-03-17T00:58:42.277Z,-1.53
2023-03-17T01:01:42.284Z,-1.63
2023-03-17T01:04:45.615Z,-1.51
2023-03-17T01:07:47.222Z,-1.53
2023-03-17T01:10:47.277Z,-1.57
2023-03-17T01:13:47.256Z,-1.53
2023-03-17T01:16:47.289Z,-1.87
2023-03-17T01:19:47.247Z,-1.63
2023-03-17T01:22:47.283Z,-1.67
2023-03-17T01:25:47.284Z,-1.61
2023-03-17T01:28:47.227Z,-1.57
2023-03-17T01:31:47.235Z,-1.62
2023-03-17T01:34:47.227Z,-1.76
2023-03-17T01:37:47.277Z,-1.72
2023-03-17T01:40:50.261Z,-1.74
2023-03-17T01:43:50.302Z,-1.77
2023-03-17T01:46:50.267Z,-1.83
2023-03-17T01:49:52.235Z,-1.85
2023-03-17T01:52:53.273Z,-1.84
2023-03-17T01:55:54.276Z,-1.96
2023-03-17T01:58:54.260Z,-1.92
2023-03-17T02:01:57.246Z,-1.94
2023-03-17T02:04:57.266Z,-1.97
2023-03-17T02:07:57.282Z,-2.23
2023-03-17T02:10:59.249Z,-2.07
2023-03-17T02:14:00.232Z,-2.08
2023-03-17T02:17:00.345Z,-2.05
2023-03-17T02:20:01.187Z,-2.00
2023-03-17T02:23:05.241Z,-2.02
2023-03-17T02:26:07.260Z,-2.01
2023-03-17T02:29:08.274Z,-2.00
2023-03-17T02:32:08.258Z,-2.05
2023-03-17T02:35:08.274Z,-1.92
2023-03-17T02:38:08.234Z,-1.92
2023-03-17T02:41:08.209Z,-1.95
2023-03-17T02:44:08.227Z,-1.98
2023-03-17T02:47:08.265Z,-1.91
2023-03-17T02:50:01.322Z,-1.94
2023-03-17T02:53:01.257Z,-2.25
2023-03-17T02:56:01.277Z,-2.07
2023-03-17T02:59:01.270Z,-2.05
2023-03-17T03:02:02.276Z,-1.94
2023-03-17T03:05:03.241Z,-2.15
2023-03-17T03:08:03.274Z,-2.12
2023-03-17T03:11:03.265Z,-2.15
2023-03-17T03:14:03.213Z,-1.87
2023-03-17T03:17:03.238Z,-1.92
2023-03-17T03:20:03.244Z,-2.03
2023-03-17T03:23:03.267Z,-2.27
2023-03-17T03:26:03.229Z,-2.07
2023-03-17T03:29:05.231Z,-2.14
2023-03-17T03:32:05.233Z,-1.96
2023-03-17T03:35:05.303Z,-1.93
2023-03-17T03:38:05.269Z,-1.98
2023-03-17T03:41:05.248Z,-1.99
2023-03-17T03:44:05.228Z,-2.04
2023-03-17T03:47:05.276Z,-2.10
2023-03-17T03:50:05.240Z,-2.04
2023-03-17T03:53:05.234Z,-2.16
2023-03-17T03:56:05.213Z,-2.07
2023-03-17T03:59:05.271Z,-2.17
2023-03-17T04:02:05.200Z,-2.03
2023-03-17T04:05:05.250Z,-1.94
2023-03-17T04:08:05.250Z,-1.95
2023-03-17T04:10:58.326Z,-2.06
2023-03-17T04:13:58.262Z,-2.30
2023-03-17T04:16:58.211Z,-2.28
2023-03-17T04:19:58.239Z,-2.18
2023-03-17T04:22:58.264Z,-2.29
2023-03-17T04:25:51.982Z,-2.34
2023-03-17T04:28:51.263Z,-2.23
2023-03-17T04:31:51.337Z,-2.32
2023-03-17T04:34:51.248Z,-2.27
2023-03-17T04:37:51.274Z,-2.32
2023-03-17T04:40:51.236Z,-2.43
2023-03-17T04:43:51.182Z,-2.32
2023-03-17T04:46:51.224Z,-2.43
2023-03-17T04:49:51.262Z,-2.23
2023-03-17T04:52:51.250Z,-2.44
2023-03-17T04:55:51.245Z,-2.24
2023-03-17T04:58:51.230Z,-2.29
2023-03-17T05:01:51.293Z,-2.18
2023-03-17T05:04:51.231Z,-1.90
2023-03-17T05:07:51.221Z,-1.89
2023-03-17T05:10:51.250Z,-1.80
2023-03-17T05:13:51.204Z,-1.76
2023-03-17T05:16:51.264Z,-1.73
2023-03-17T05:19:51.199Z,-1.72
2023-03-17T05:22:51.204Z,-1.68
2023-03-17T05:25:51.222Z,-1.63
2023-03-17T05:28:51.203Z,-1.66
2023-03-17T05:31:51.240Z,-1.49
2023-03-17T05:34:51.216Z,-1.48
2023-03-17T05:37:51.215Z,-1.42
2023-03-17T05:40:51.200Z,-1.40
2023-03-17T05:43:51.234Z,-1.41
2023-03-17T05:46:51.277Z,-1.29
2023-03-17T05:49:51.260Z,-1.38
2023-03-17T05:52:51.230Z,-1.05
2023-03-17T05:55:51.207Z,-0.99
2023-03-17T05:58:51.226Z,-0.93
2023-03-17T06:01:51.189Z,-0.85
2023-03-17T06:04:52.269Z,-0.82
2023-03-17T06:07:56.252Z,-0.78
2023-03-17T06:10:56.236Z,-0.60
2023-03-17T06:13:56.198Z,-0.33
2023-03-17T06:16:56.205Z,-0.36
2023-03-17T06:19:56.241Z,-0.20
2023-03-17T06:23:04.381Z,0.02
2023-03-17T06:26:05.208Z,0.14
2023-03-17T06:29:05.204Z,0.29
2023-03-17T06:32:19.423Z,0.45
2023-03-17T06:35:20.307Z,0.55
2023-03-17T06:38:20.232Z,0.81
2023-03-17T06:41:20.182Z,0.99
2023-03-17T06:44:20.301Z,1.24
2023-03-17T06:47:20.202Z,1.43
2023-03-17T06:50:22.243Z,1.89
2023-03-17T06:53:22.228Z,2.12
2023-03-17T06:56:29.879Z,2.19
2023-03-17T06:59:30.222Z,2.26
2023-03-17T07:02:32.246Z,2.27
2023-03-17T07:05:32.557Z,2.53
2023-03-17T07:08:32.224Z,2.68
2023-03-17T07:11:33.229Z,2.69
2023-03-17T07:14:33.269Z,2.87
2023-03-17T07:17:33.199Z,2.97
2023-03-17T07:20:33.256Z,3.14
2023-03-17T07:23:35.204Z,3.25
2023-03-17T07:26:35.218Z,3.43
2023-03-17T07:29:36.181Z,3.55
2023-03-17T07:32:36.318Z,3.69
2023-03-17T07:35:37.277Z,3.92
2023-03-17T07:38:37.180Z,3.96
2023-03-17T07:41:37.270Z,4.30
2023-03-17T07:44:39.220Z,4.82
2023-03-17T07:47:39.213Z,6.45
2023-03-17T07:50:39.266Z,7.99
2023-03-17T07:53:40.228Z,8.67
2023-03-17T07:56:40.308Z,10.57
2023-03-17T07:59:40.289Z,11.00
2023-03-17T08:02:43.282Z,10.55
2023-03-17T08:05:43.182Z,11.71
2023-03-17T08:08:43.212Z,12.26
2023-03-17T08:11:43.189Z,12.40
2023-03-17T08:14:43.202Z,12.52
2023-03-17T08:17:43.230Z,13.43
2023-03-17T08:20:43.231Z,14.43
2023-03-17T08:23:43.286Z,14.87
2023-03-17T08:26:43.309Z,14.86
2023-03-17T08:29:43.222Z,14.28
2023-03-17T08:32:43.309Z,13.91
2023-03-17T08:35:43.244Z,15.35
2023-03-17T08:38:43.210Z,14.92
2023-03-17T08:41:44.209Z,15.67
2023-03-17T08:44:44.293Z,14.69
2023-03-17T08:47:44.212Z,15.55
2023-03-17T08:50:44.251Z,16.41
2023-03-17T08:53:44.240Z,17.05
2023-03-17T08:56:44.189Z,16.72
2023-03-17T08:59:44.557Z,14.95
2023-03-17T09:02:45.300Z,15.04
2023-03-17T09:05:45.251Z,16.15
2023-03-17T09:08:51.215Z,16.60
2023-03-17T09:11:51.217Z,17.89
2023-03-17T09:14:51.251Z,17.30
2023-03-17T09:17:51.297Z,15.85
2023-03-17T09:20:51.248Z,15.88
2023-03-17T09:23:51.178Z,16.31
2023-03-17T09:26:51.201Z,15.72
2023-03-17T09:29:54.516Z,16.02
2023-03-17T09:32:55.408Z,16.01
2023-03-17T09:35:55.316Z,17.14
2023-03-17T09:38:55.255Z,17.98
2023-03-17T09:42:03.194Z,17.88
2023-03-17T09:45:43.472Z,18.81
2023-03-17T09:49:15.251Z,18.82
2023-03-17T09:52:27.264Z,18.71
2023-03-17T09:55:38.347Z,17.95
2023-03-17T09:58:51.071Z,16.91
2023-03-17T10:01:55.247Z,16.40
2023-03-17T10:04:55.248Z,18.04
2023-03-17T10:08:27.028Z,19.08
2023-03-17T10:11:38.234Z,18.64
2023-03-17T10:14:52.212Z,19.06
2023-03-17T10:17:54.407Z,18.25
2023-03-17T10:21:08.258Z,20.04
2023-03-17T10:24:08.345Z,20.29
2023-03-17T10:27:09.230Z,19.89
2023-03-17T10:30:10.224Z,19.44
2023-03-17T10:33:16.215Z,19.55
2023-03-17T10:36:23.260Z,19.87
2023-03-17T10:39:25.218Z,18.65
2023-03-17T10:42:36.372Z,20.23
2023-03-17T10:45:38.402Z,20.84
2023-03-17T10:48:39.218Z,19.78
2023-03-17T10:51:47.216Z,20.06
2023-03-17T10:54:49.237Z,19.94
2023-03-17T10:57:51.238Z,20.24
2023-03-17T11:00:51.329Z,19.64
2023-03-17T11:03:53.236Z,20.18
2023-03-17T11:06:56.220Z,18.89
2023-03-17T11:09:57.252Z,19.82
2023-03-17T11:12:57.220Z,19.55
2023-03-17T11:16:04.267Z,20.38
2023-03-17T11:19:12.232Z,20.71
2023-03-17T11:22:24.248Z,19.79
2023-03-17T11:25:33.274Z,19.68
2023-03-17T11:28:41.232Z,19.98
2023-03-17T11:32:16.258Z,20.58
2023-03-17T11:35:43.279Z,19.07
2023-03-17T11:38:44.256Z,19.47
2023-03-17T11:41:59.229Z,19.18
2023-03-17T11:45:25.243Z,19.97
2023-03-17T11:48:38.285Z,18.53
2023-03-17T11:52:14.268Z,18.94
2023-03-17T11:55:29.272Z,19.03
2023-03-17T11:58:50.290Z,20.14
2023-03-17T12:02:22.239Z,18.59
2023-03-17T12:05:29.261Z,19.70
2023-03-17T12:08:44.241Z,19.97
2023-03-17T12:11:45.238Z,19.27
2023-03-17T12:14:53.241Z,19.22
2023-03-17T12:18:02.224Z,17.99
2023-03-17T12:21:25.262Z,18.70
2023-03-17T12:24:38.248Z,17.75
2023-03-17T12:27:38.317Z,17.92
2023-03-17T12:30:52.291Z,18.19
2023-03-17T12:34:07.454Z,17.01
2023-03-17T12:37:07.243Z,15.14
2023-03-17T12:40:27.295Z,15.41
2023-03-17T12:43:51.282Z,15.95
2023-03-17T12:47:03.290Z,15.58
2023-03-17T12:50:04.262Z,15.71
2023-03-17T12:53:29.265Z,16.68
2023-03-17T12:56:35.279Z,16.49
2023-03-17T12:59:38.290Z,16.04
2023-03-17T13:02:59.423Z,14.91
2023-03-17T13:06:01.301Z,14.96
2023-03-17T13:09:03.293Z,15.14
2023-03-17T13:12:04.355Z,15.27
2023-03-17T13:15:05.317Z,15.00
2023-03-17T13:18:13.255Z,14.73
2023-03-17T13:21:13.264Z,14.44
2023-03-17T13:24:37.341Z,12.42
2023-03-17T13:27:46.282Z,12.74
2023-03-17T13:30:49.297Z,12.71
2023-03-17T13:33:49.263Z,12.85
2023-03-17T13:37:01.303Z,12.47
2023-03-17T13:40:05.309Z,12.57
2023-03-17T13:43:27.292Z,12.51
2023-03-17T13:46:43.285Z,12.37
2023-03-17T13:49:44.252Z,11.80
2023-03-17T13:52:53.278Z,11.56
2023-03-17T13:55:55.302Z,11.57
2023-03-17T13:59:13.281Z,11.19
2023-03-17T14:02:30.250Z,10.99
2023-03-17T14:05:39.348Z,10.98
2023-03-17T14:08:48.296Z,10.79
2023-03-17T14:11:54.280Z,11.00
2023-03-17T14:15:11.302Z,10.95
2023-03-17T14:18:17.350Z,10.71
2023-03-17T14:21:20.315Z,10.92
2023-03-17T14:24:39.279Z,10.58
2023-03-17T14:27:48.293Z,10.94
2023-03-17T14:30:47.325Z,11.00
2023-03-17T14:33:44.296Z,11.08
2023-03-17T14:36:32.267Z,10.80
2023-03-17T14:39:37.264Z,10.88
2023-03-17T14:42:43.285Z,11.00
2023-03-17T14:45:57.368Z,10.92
2023-03-17T14:49:01.327Z,10.87
2023-03-17T14:52:05.331Z,10.74
2023-03-17T14:55:06.315Z,10.30
2023-03-17T14:58:06.275Z,10.28
2023-03-17T15:01:20.330Z,10.12
2023-03-17T15:04:27.270Z,10.04
2023-03-17T15:07:43.288Z,9.86
2023-03-17T15:10:54.277Z,9.71
2023-03-17T15:13:54.265Z,9.58
2023-03-17T15:17:02.307Z,9.46
2023-03-17T15:20:04.290Z,9.39
2023-03-17T15:23:17.308Z,9.28
2023-03-17T15:26:17.504Z,9.20
2023-03-17T15:29:17.300Z,9.08
2023-03-17T15:32:26.370Z,8.98
2023-03-17T15:35:27.326Z,8.91
2023-03-17T15:38:28.294Z,8.86
2023-03-17T15:41:28.264Z,8.67
2023-03-17T15:44:28.270Z,8.76
2023-03-17T15:47:29.309Z,8.60
2023-03-17T15:50:39.283Z,8.61
2023-03-17T15:53:39.253Z,8.57
2023-03-17T15:56:39.310Z,8.40
2023-03-17T15:59:39.291Z,8.24
2023-03-17T16:02:43.277Z,8.18
2023-03-17T16:05:45.250Z,8.02
2023-03-17T16:08:45.292Z,7.86
2023-03-17T16:11:45.285Z,7.68
2023-03-17T16:14:45.264Z,7.47
2023-03-17T16:17:45.300Z,7.40
2023-03-17T16:20:54.276Z,7.26
2023-03-17T16:23:54.266Z,7.14
2023-03-17T16:26:54.278Z,6.88
2023-03-17T16:29:54.253Z,6.93
2023-03-17T16:32:54.332Z,6.76
2023-03-17T16:35:57.295Z,6.70
2023-03-17T16:38:57.311Z,6.57
2023-03-17T16:42:00.303Z,6.50
2023-03-17T16:45:00.262Z,6.41
2023-03-17T16:48:00.265Z,6.33
2023-03-17T16:51:00.300Z,6.18
2023-03-17T16:54:00.309Z,6.14
2023-03-17T16:57:00.306Z,6.06
2023-03-17T17:00:00.295Z,5.96
2023-03-17T17:03:00.340Z,5.84
2023-03-17T17:06:00.274Z,5.75
2023-03-17T17:09:01.295Z,5.57
2023-03-17T17:12:01.311Z,5.43
2023-03-17T17:15:01.292Z,5.48
2023-03-17T17:18:03.260Z,5.35
2023-03-17T17:21:03.309Z,5.28
2023-03-17T17:24:03.247Z,5.34
2023-03-17T17:27:03.280Z,5.10
2023-03-17T17:30:03.261Z,5.18
2023-03-17T17:33:03.387Z,5.09
2023-03-17T17:36:03.313Z,5.05
2023-03-17T17:39:03.294Z,4.88
2023-03-17T17:42:03.294Z,4.92
2023-03-17T17:45:03.313Z,4.85
2023-03-17T17:48:03.302Z,4.58
2023-03-17T17:51:04.246Z,4.68
2023-03-17T17:54:04.268Z,4.52
2023-03-17T17:57:04.249Z,4.56
2023-03-17T18:00:04.307Z,4.47
2023-03-17T18:03:04.297Z,4.49
2023-03-17T18:06:08.271Z,4.34
2023-03-17T18:09:08.333Z,4.27
2023-03-17T18:12:08.275Z,4.22
2023-03-17T18:15:08.275Z,4.02
2023-03-17T18:18:01.440Z,4.08
2023-03-17T18:21:01.322Z,4.06
2023-03-17T18:24:02.284Z,4.03
2023-03-17T18:27:02.276Z,3.95
2023-03-17T18:30:02.296Z,3.91
2023-03-17T18:33:03.346Z,3.81
2023-03-17T18:36:04.256Z,3.83
2023-03-17T18:39:04.270Z,3.79
2023-03-17T18:42:04.301Z,3.77
2023-03-17T18:45:04.255Z,3.75
2023-03-17T18:48:04.293Z,3.71
2023-03-17T18:51:04.281Z,3.70
2023-03-17T18:54:04.290Z,3.68
2023-03-17T18:57:04.262Z,3.65
2023-03-17T19:00:04.267Z,3.69
2023-03-17T19:03:04.310Z,3.49
2023-03-17T19:06:04.298Z,3.53
2023-03-17T19:09:04.284Z,3.43
2023-03-17T19:12:04.252Z,3.48
2023-03-17T19:15:04.271Z,3.38
2023-03-17T19:18:04.289Z,3.28
2023-03-17T19:21:04.252Z,3.22
2023-03-17T19:24:04.312Z,3.19
2023-03-17T19:27:04.252Z,3.14
2023-03-17T19:30:04.255Z,3.11
2023-03-17T19:33:04.288Z,3.06
2023-03-17T19:36:09.322Z,3.01
2023-03-17T19:39:09.264Z,3.03
2023-03-17T19:42:09.275Z,2.99
2023-03-17T19:45:09.262Z,3.01
2023-03-17T19:48:09.283Z,2.99
2023-03-17T19:51:09.314Z,3.10
2023-03-17T19:54:09.283Z,3.20
2023-03-17T19:57:09.284Z,3.24
2023-03-17T20:00:09.285Z,3.31
2023-03-17T20:03:09.270Z,3.28
2023-03-17T20:06:12.290Z,2.99
2023-03-17T20:09:12.280Z,3.12
2023-03-17T20:12:12.278Z,3.01
2023-03-17T20:15:12.303Z,2.93
2023-03-17T20:18:12.270Z,2.82
2023-03-17T20:21:14.252Z,2.72
2023-03-17T20:24:14.288Z,2.64
2023-03-17T20:27:17.240Z,2.57
2023-03-17T20:30:18.297Z,2.45
2023-03-17T20:33:19.250Z,2.34
2023-03-17T20:36:19.262Z,2.22
2023-03-17T20:39:21.300Z,2.14
2023-03-17T20:42:21.330Z,2.08
2023-03-17T20:45:21.261Z,1.94
2023-03-17T20:48:21.289Z,1.90
2023-03-17T20:51:23.257Z,1.85
2023-03-17T20:54:24.273Z,1.72
2023-03-17T20:57:26.334Z,1.69
2023-03-17T21:00:27.267Z,1.70
2023-03-17T21:03:27.260Z,1.62
2023-03-17T21:06:27.290Z,1.54
2023-03-17T21:09:27.294Z,1.39
2023-03-17T21:12:29.262Z,1.49
2023-03-17T21:15:30.310Z,1.43
2023-03-17T21:18:30.253Z,1.40
2023-03-17T21:21:30.263Z,1.31
2023-03-17T21:24:42.319Z,1.16
2023-03-17T21:27:43.310Z,1.02
2023-03-17T21:30:43.288Z,1.14
2023-03-17T21:33:43.278Z,1.04
2023-03-17T21:36:43.274Z,0.99
2023-03-17T21:39:43.225Z,0.88
2023-03-17T21:42:43.248Z,0.93
2023-03-17T21:45:43.249Z,0.63
2023-03-17T21:48:44.288Z,0.81
2023-03-17T21:51:44.301Z,0.66
2023-03-17T21:54:44.244Z,0.73
2023-03-17T21:57:44.241Z,0.45
2023-03-17T22:00:45.959Z,0.43
2023-03-17T22:03:46.281Z,0.34
2023-03-17T22:06:46.258Z,0.53
2023-03-17T22:09:46.264Z,0.53
2023-03-17T22:12:47.299Z,0.48
2023-03-17T22:15:47.260Z,0.38
2023-03-17T22:18:47.234Z,0.42
2023-03-17T22:21:47.280Z,0.38
2023-03-17T22:24:47.275Z,0.39
2023-03-17T22:27:47.293Z,0.34
2023-03-17T22:30:47.240Z,0.33
2023-03-17T22:33:47.259Z,0.27
2023-03-17T22:36:47.287Z,0.15
2023-03-17T22:39:47.243Z,0.26
2023-03-17T22:42:47.295Z,0.20
2023-03-17T22:45:47.266Z,0.16
2023-03-17T22:48:47.297Z,0.09
2023-03-17T22:51:50.312Z,0.08
2023-03-17T22:54:50.269Z,0.10
2023-03-17T22:57:50.451Z,-0.12
2023-03-17T23:00:50.313Z,-0.05
2023-03-17T23:03:50.277Z,-0.29
2023-03-17T23:06:50.254Z,-0.11
2023-03-17T23:09:50.274Z,-0.08
2023-03-17T23:12:50.250Z,-0.10
2023-03-17T23:15:50.287Z,-0.11
2023-03-17T23:18:46.093Z,-0.19
2023-03-17T23:21:49.232Z,-0.10
2023-03-17T23:24:49.304Z,-0.28
2023-03-17T23:27:49.295Z,-0.09
2023-03-17T23:30:49.307Z,-0.08
2023-03-17T23:33:49.292Z,-0.25
2023-03-17T23:36:46.282Z,-0.23
2023-03-17T23:39:25.615Z,-0.29
2023-03-17T23:42:11.281Z,-0.33
2023-03-17T23:44:58.430Z,-0.36
2023-03-17T23:47:59.247Z,-0.32
2023-03-17T23:50:59.242Z,-0.27
2023-03-17T23:53:59.271Z,-0.38
2023-03-17T23:56:59.279Z,-0.37
2023-03-17T23:59:59.247Z,-0.43
